sensor_id;sensor_type;location;lat;lon;timestamp;pressure;altitude;pressure_sealevel;temperature;humidity
43707;BME280;61348;53.392;-6.248;2023-03-20T00:01:55;100423.72;;;9.93;100.00
43707;BME280;61348;53.392;-6.248;2023-03-20T00:04:22;100426.50;;;9.93;100.00
43707;BME280;61348;53.392;-6.248;2023-03-20T00:06:49;100427.75;;;9.96;100.00
43707;BME280;61348;53.392;-6.248;2023-03-20T00:09:16;100420.63;;;9.95;100.00
43707;BME280;61348;53.392;-6.248;2023-03-20T00:11:47;100418.69;;;9.95;100.00
43707;BME280;61348;53.392;-6.248;2023-03-20T00:14:17;100412.66;;;9.93;100.00
43707;BME280;61348;53.392;-6.248;2023-03-20T00:16:46;100421.44;;;9.95;100.00
43707;BME280;61348;53.392;-6.248;2023-03-20T00:19:18;100418.19;;;9.93;100.00
43707;BME280;61348;53.392;-6.248;2023-03-20T00:21:46;100409.66;;;9.98;100.00
43707;BME280;61348;53.392;-6.248;2023-03-20T00:24:14;100417.25;;;10.01;100.00
43707;BME280;61348;53.392;-6.248;2023-03-20T00:26:43;100424.75;;;10.01;100.00
43707;BME280;61348;53.392;-6.248;2023-03-20T00:29:25;100420.50;;;10.03;100.00
43707;BME280;61348;53.392;-6.248;2023-03-20T00:31:53;100431.22;;;10.05;100.00
43707;BME280;61348;53.392;-6.248;2023-03-20T00:34:22;100423.34;;;10.07;100.00
43707;BME280;61348;53.392;-6.248;2023-03-20T00:36:51;100421.84;;;10.09;100.00
43707;BME280;61348;53.392;-6.248;2023-03-20T00:39:19;100425.06;;;10.11;100.00
43707;BME280;61348;53.392;-6.248;2023-03-20T00:41:56;100424.41;;;10.14;100.00
43707;BME280;61348;53.392;-6.248;2023-03-20T00:44:30;100419.34;;;10.16;100.00
43707;BME280;61348;53.392;-6.248;2023-03-20T00:47:00;100420.94;;;10.17;100.00
43707;BME280;61348;53.392;-6.248;2023-03-20T00:49:33;100400.00;;;10.16;100.00
43707;BME280;61348;53.392;-6.248;2023-03-20T00:52:01;100407.13;;;10.17;100.00
43707;BME280;61348;53.392;-6.248;2023-03-20T00:54:29;100400.06;;;10.20;100.00
43707;BME280;61348;53.392;-6.248;2023-03-20T00:57:02;100394.19;;;10.21;100.00
43707;BME280;61348;53.392;-6.248;2023-03-20T00:59:35;100381.97;;;10.22;100.00
43707;BME280;61348;53.392;-6.248;2023-03-20T01:02:04;100389.81;;;10.20;100.00
43707;BME280;61348;53.392;-6.248;2023-03-20T01:04:37;100393.72;;;10.19;100.00
43707;BME280;61348;53.392;-6.248;2023-03-20T01:07:06;100386.59;;;10.18;100.00
43707;BME280;61348;53.392;-6.248;2023-03-20T01:09:33;100381.06;;;10.18;100.00
43707;BME280;61348;53.392;-6.248;2023-03-20T01:12:00;100379.91;;;10.19;100.00
43707;BME280;61348;53.392;-6.248;2023-03-20T01:14:27;100383.84;;;10.18;100.00
43707;BME280;61348;53.392;-6.248;2023-03-20T01:16:54;100389.81;;;10.20;100.00
43707;BME280;61348;53.392;-6.248;2023-03-20T01:19:21;100380.38;;;10.21;100.00
43707;BME280;61348;53.392;-6.248;2023-03-20T01:21:48;100377.59;;;10.21;100.00
43707;BME280;61348;53.392;-6.248;2023-03-20T01:24:15;100380.00;;;10.23;100.00
43707;BME280;61348;53.392;-6.248;2023-03-20T01:26:43;100380.44;;;10.25;100.00
43707;BME280;61348;53.392;-6.248;2023-03-20T01:29:18;100381.25;;;10.25;100.00
43707;BME280;61348;53.392;-6.248;2023-03-20T01:31:45;100384.03;;;10.25;100.00
43707;BME280;61348;53.392;-6.248;2023-03-20T01:34:12;100382.06;;;10.26;100.00
43707;BME280;61348;53.392;-6.248;2023-03-20T01:36:49;100377.69;;;10.25;100.00
43707;BME280;61348;53.392;-6.248;2023-03-20T01:39:16;100371.38;;;10.24;100.00
43707;BME280;61348;53.392;-6.248;2023-03-20T01:41:45;100376.91;;;10.24;100.00
43707;BME280;61348;53.392;-6.248;2023-03-20T01:44:19;100372.97;;;10.25;100.00
43707;BME280;61348;53.392;-6.248;2023-03-20T01:46:49;100366.28;;;10.26;100.00
43707;BME280;61348;53.392;-6.248;2023-03-20T01:51:48;100372.25;;;10.28;100.00
43707;BME280;61348;53.392;-6.248;2023-03-20T01:54:35;100372.25;;;10.28;100.00
43707;BME280;61348;53.392;-6.248;2023-03-20T01:57:14;100371.44;;;10.28;100.00
43707;BME280;61348;53.392;-6.248;2023-03-20T02:00:14;100372.25;;;10.28;100.00
43707;BME280;61348;53.392;-6.248;2023-03-20T02:02:44;100371.44;;;10.28;100.00
43707;BME280;61348;53.392;-6.248;2023-03-20T02:05:14;100376.66;;;10.29;100.00
43707;BME280;61348;53.392;-6.248;2023-03-20T02:07:48;100367.19;;;10.30;100.00
43707;BME280;61348;53.392;-6.248;2023-03-20T02:10:17;100372.38;;;10.32;100.00
43707;BME280;61348;53.392;-6.248;2023-03-20T02:12:45;100361.31;;;10.32;100.00
43707;BME280;61348;53.392;-6.248;2023-03-20T02:15:14;100364.06;;;10.32;100.00
43707;BME280;61348;53.392;-6.248;2023-03-20T02:17:42;100362.13;;;10.32;100.00
43707;BME280;61348;53.392;-6.248;2023-03-20T02:20:33;100366.03;;;10.31;100.00
43707;BME280;61348;53.392;-6.248;2023-03-20T02:23:27;100351.06;;;10.32;100.00
43707;BME280;61348;53.392;-6.248;2023-03-20T02:26:09;100358.63;;;10.35;100.00
43707;BME280;61348;53.392;-6.248;2023-03-20T02:45:26;100354.00;;;10.39;100.00
43707;BME280;61348;53.392;-6.248;2023-03-20T02:50:50;100347.28;;;10.40;100.00
43707;BME280;61348;53.392;-6.248;2023-03-20T02:53:33;100346.59;;;10.44;100.00
43707;BME280;61348;53.392;-6.248;2023-03-20T02:58:48;100351.34;;;10.43;100.00
43707;BME280;61348;53.392;-6.248;2023-03-20T03:01:20;100345.44;;;10.45;100.00
43707;BME280;61348;53.392;-6.248;2023-03-20T03:03:55;100336.00;;;10.46;100.00
43707;BME280;61348;53.392;-6.248;2023-03-20T03:06:26;100340.34;;;10.47;100.00
43707;BME280;61348;53.392;-6.248;2023-03-20T03:09:00;100338.41;;;10.47;100.00
43707;BME280;61348;53.392;-6.248;2023-03-20T03:11:31;100327.69;;;10.46;100.00
43707;BME280;61348;53.392;-6.248;2023-03-20T03:13:59;100332.06;;;10.47;100.00
43707;BME280;61348;53.392;-6.248;2023-03-20T03:16:29;100324.91;;;10.46;100.00
43707;BME280;61348;53.392;-6.248;2023-03-20T03:21:32;100326.06;;;10.45;100.00
43707;BME280;61348;53.392;-6.248;2023-03-20T03:24:00;100320.09;;;10.43;100.00
43707;BME280;61348;53.392;-6.248;2023-03-20T03:26:32;100313.75;;;10.42;100.00
43707;BME280;61348;53.392;-6.248;2023-03-20T03:29:03;100311.78;;;10.43;100.00
43707;BME280;61348;53.392;-6.248;2023-03-20T03:31:32;100317.66;;;10.41;100.00
43707;BME280;61348;53.392;-6.248;2023-03-20T03:34:00;100318.47;;;10.42;100.00
43707;BME280;61348;53.392;-6.248;2023-03-20T03:36:45;100317.31;;;10.43;100.00
43707;BME280;61348;53.392;-6.248;2023-03-20T03:39:40;100316.84;;;10.40;100.00
43707;BME280;61348;53.392;-6.248;2023-03-20T03:42:34;100310.97;;;10.42;100.00
43707;BME280;61348;53.392;-6.248;2023-03-20T03:45:04;100323.19;;;10.41;100.00
43707;BME280;61348;53.392;-6.248;2023-03-20T03:47:38;100329.53;;;10.42;100.00
43707;BME280;61348;53.392;-6.248;2023-03-20T03:50:27;100328.03;;;10.44;100.00
43707;BME280;61348;53.392;-6.248;2023-03-20T03:52:58;100337.13;;;10.45;100.00
43707;BME280;61348;53.392;-6.248;2023-03-20T03:55:31;100332.75;;;10.44;100.00
43707;BME280;61348;53.392;-6.248;2023-03-20T03:58:05;100334.38;;;10.45;100.00
43707;BME280;61348;53.392;-6.248;2023-03-20T04:00:34;100332.75;;;10.44;100.00
43707;BME280;61348;53.392;-6.248;2023-03-20T04:03:02;100344.28;;;10.46;100.00
43707;BME280;61348;53.392;-6.248;2023-03-20T04:05:34;100336.00;;;10.46;100.00
43707;BME280;61348;53.392;-6.248;2023-03-20T04:08:04;100332.06;;;10.47;100.00
43707;BME280;61348;53.392;-6.248;2023-03-20T04:10:32;100328.94;;;10.48;100.00
43707;BME280;61348;53.392;-6.248;2023-03-20T04:13:01;100334.47;;;10.48;100.00
43707;BME280;61348;53.392;-6.248;2023-03-20T04:15:27;100330.09;;;10.47;100.00
43707;BME280;61348;53.392;-6.248;2023-03-20T04:17:54;100316.25;;;10.47;100.00
43707;BME280;61348;53.392;-6.248;2023-03-20T04:20:21;100328.47;;;10.46;100.00
43707;BME280;61348;53.392;-6.248;2023-03-20T04:22:48;100328.84;;;10.45;100.00
43707;BME280;61348;53.392;-6.248;2023-03-20T04:25:21;100328.03;;;10.44;100.00
43707;BME280;61348;53.392;-6.248;2023-03-20T04:27:48;100334.38;;;10.45;100.00
43707;BME280;61348;53.392;-6.248;2023-03-20T04:30:16;100327.22;;;10.44;100.00
43707;BME280;61348;53.392;-6.248;2023-03-20T04:32:42;100336.69;;;10.43;100.00
43707;BME280;61348;53.392;-6.248;2023-03-20T04:35:09;100329.53;;;10.42;100.00
43707;BME280;61348;53.392;-6.248;2023-03-20T04:37:36;100330.34;;;10.42;100.00
43707;BME280;61348;53.392;-6.248;2023-03-20T04:40:03;100327.91;;;10.40;100.00
43707;BME280;61348;53.392;-6.248;2023-03-20T04:42:30;100335.06;;;10.42;100.00
43707;BME280;61348;53.392;-6.248;2023-03-20T04:44:56;100330.69;;;10.40;100.00
43707;BME280;61348;53.392;-6.248;2023-03-20T04:47:23;100328.72;;;10.41;100.00
43707;BME280;61348;53.392;-6.248;2023-03-20T04:49:50;100329.91;;;10.40;100.00
43707;BME280;61348;53.392;-6.248;2023-03-20T04:52:17;100324.00;;;10.42;100.00
43707;BME280;61348;53.392;-6.248;2023-03-20T04:54:43;100333.47;;;10.40;100.00
43707;BME280;61348;53.392;-6.248;2023-03-20T04:57:11;100323.56;;;10.39;100.00
43707;BME280;61348;53.392;-6.248;2023-03-20T04:59:38;100319.19;;;10.38;100.00
43707;BME280;61348;53.392;-6.248;2023-03-20T05:02:04;100335.78;;;10.38;100.00
43707;BME280;61348;53.392;-6.248;2023-03-20T05:04:31;100344.88;;;10.39;100.00
43707;BME280;61348;53.392;-6.248;2023-03-20T05:06:58;100333.47;;;10.40;100.00
43707;BME280;61348;53.392;-6.248;2023-03-20T05:09:25;100342.94;;;10.39;100.00
43707;BME280;61348;53.392;-6.248;2023-03-20T05:11:51;100337.41;;;10.39;100.00
43707;BME280;61348;53.392;-6.248;2023-03-20T05:14:18;100341.31;;;10.38;100.00
43707;BME280;61348;53.392;-6.248;2023-03-20T05:16:45;100342.50;;;10.37;100.00
43707;BME280;61348;53.392;-6.248;2023-03-20T05:19:12;100332.56;;;10.36;100.00
43707;BME280;61348;53.392;-6.248;2023-03-20T05:21:38;100337.28;;;10.36;100.00
43707;BME280;61348;53.392;-6.248;2023-03-20T05:24:05;100338.47;;;10.35;100.00
43707;BME280;61348;53.392;-6.248;2023-03-20T05:26:32;100331.69;;;10.32;100.00
43707;BME280;61348;53.392;-6.248;2023-03-20T05:28:58;100331.22;;;10.30;100.00
43707;BME280;61348;53.392;-6.248;2023-03-20T05:31:25;100325.22;;;10.28;100.00
43707;BME280;61348;53.392;-6.248;2023-03-20T05:33:52;100327.09;;;10.24;100.00
43707;BME280;61348;53.392;-6.248;2023-03-20T05:36:19;100331.03;;;10.23;100.00
43707;BME280;61348;53.392;-6.248;2023-03-20T05:38:46;100337.69;;;10.22;100.00
43707;BME280;61348;53.392;-6.248;2023-03-20T05:41:12;100339.31;;;10.23;100.00
43707;BME280;61348;53.392;-6.248;2023-03-20T05:43:39;100347.94;;;10.22;100.00
43707;BME280;61348;53.392;-6.248;2023-03-20T05:46:06;100337.69;;;10.22;100.00
43707;BME280;61348;53.392;-6.248;2023-03-20T05:48:34;100336.09;;;10.21;100.00
43707;BME280;61348;53.392;-6.248;2023-03-20T05:51:00;100335.75;;;10.23;100.00
43707;BME280;61348;53.392;-6.248;2023-03-20T05:53:27;100336.88;;;10.22;100.00
43707;BME280;61348;53.392;-6.248;2023-03-20T05:55:54;100333.34;;;10.21;100.00
43707;BME280;61348;53.392;-6.248;2023-03-20T05:58:20;100343.22;;;10.22;100.00
43707;BME280;61348;53.392;-6.248;2023-03-20T06:00:47;100325.03;;;10.21;100.00
43707;BME280;61348;53.392;-6.248;2023-03-20T06:03:14;100330.56;;;10.21;100.00
43707;BME280;61348;53.392;-6.248;2023-03-20T06:05:41;100328.16;;;10.20;100.00
43707;BME280;61348;53.392;-6.248;2023-03-20T06:08:07;100337.25;;;10.20;100.00
43707;BME280;61348;53.392;-6.248;2023-03-20T06:10:34;100327.34;;;10.19;100.00
43707;BME280;61348;53.392;-6.248;2023-03-20T06:13:01;100329.66;;;10.17;100.00
43707;BME280;61348;53.392;-6.248;2023-03-20T06:15:28;100321.72;;;10.16;100.00
43707;BME280;61348;53.392;-6.248;2023-03-20T06:17:55;100322.88;;;10.15;100.00
43707;BME280;61348;53.392;-6.248;2023-03-20T06:20:22;100317.69;;;10.13;100.00
43707;BME280;61348;53.392;-6.248;2023-03-20T06:22:49;100320.78;;;10.12;100.00
43707;BME280;61348;53.392;-6.248;2023-03-20T06:25:17;100312.03;;;10.10;100.00
43707;BME280;61348;53.392;-6.248;2023-03-20T06:27:47;100329.78;;;10.09;100.00
43707;BME280;61348;53.392;-6.248;2023-03-20T06:30:15;100327.00;;;10.09;100.00
43707;BME280;61348;53.392;-6.248;2023-03-20T06:32:42;100331.28;;;10.06;100.00
43707;BME280;61348;53.392;-6.248;2023-03-20T06:35:10;100331.66;;;10.05;100.00
43707;BME280;61348;53.392;-6.248;2023-03-20T06:37:37;100335.56;;;10.04;100.00
43707;BME280;61348;53.392;-6.248;2023-03-20T06:40:04;100326.00;;;10.01;100.00
43707;BME280;61348;53.392;-6.248;2023-03-20T06:42:31;100331.53;;;10.01;100.00
43707;BME280;61348;53.392;-6.248;2023-03-20T06:44:57;100328.31;;;9.99;100.00
43707;BME280;61348;53.392;-6.248;2023-03-20T06:47:24;100329.13;;;10.00;100.00
43707;BME280;61348;53.392;-6.248;2023-03-20T06:49:51;100337.44;;;10.00;100.00
43707;BME280;61348;53.392;-6.248;2023-03-20T06:52:19;100338.25;;;10.00;100.00
43707;BME280;61348;53.392;-6.248;2023-03-20T06:54:48;100336.63;;;9.99;100.00
43707;BME280;61348;53.392;-6.248;2023-03-20T06:57:17;100344.91;;;9.99;100.00
43707;BME280;61348;53.392;-6.248;2023-03-20T06:59:44;100347.69;;;9.99;100.00
43707;BME280;61348;53.392;-6.248;2023-03-20T07:02:11;100358.75;;;9.99;100.00
43707;BME280;61348;53.392;-6.248;2023-03-20T07:04:38;100363.13;;;10.00;100.00
43707;BME280;61348;53.392;-6.248;2023-03-20T07:07:05;100352.06;;;10.00;100.00
43707;BME280;61348;53.392;-6.248;2023-03-20T07:09:32;100360.38;;;10.00;100.00
43707;BME280;61348;53.392;-6.248;2023-03-20T07:11:59;100366.66;;;10.01;100.00
43707;BME280;61348;53.392;-6.248;2023-03-20T07:14:25;100363.91;;;10.01;100.00
43707;BME280;61348;53.392;-6.248;2023-03-20T07:16:52;100365.19;;;10.03;100.00
43707;BME280;61348;53.392;-6.248;2023-03-20T07:19:20;100364.03;;;10.04;100.00
43707;BME280;61348;53.392;-6.248;2023-03-20T07:21:47;100356.16;;;10.06;100.00
43707;BME280;61348;53.392;-6.248;2023-03-20T07:24:14;100361.38;;;10.08;100.00
43707;BME280;61348;53.392;-6.248;2023-03-20T07:26:41;100368.16;;;10.10;100.00
43707;BME280;61348;53.392;-6.248;2023-03-20T07:29:07;100364.22;;;10.11;100.00
43707;BME280;61348;53.392;-6.248;2023-03-20T07:31:34;100368.63;;;10.12;100.00
43707;BME280;61348;53.392;-6.248;2023-03-20T07:34:01;100364.34;;;10.15;100.00
43707;BME280;61348;53.392;-6.248;2023-03-20T07:36:27;100371.97;;;10.18;100.00
43707;BME280;61348;53.392;-6.248;2023-03-20T07:38:54;100366.06;;;10.19;100.00
43707;BME280;61348;53.392;-6.248;2023-03-20T07:41:21;100370.09;;;10.22;100.00
43707;BME280;61348;53.392;-6.248;2023-03-20T07:43:48;100359.84;;;10.22;100.00
43707;BME280;61348;53.392;-6.248;2023-03-20T07:46:14;100359.13;;;10.25;100.00
43707;BME280;61348;53.392;-6.248;2023-03-20T07:48:41;100356.81;;;10.27;100.00
43707;BME280;61348;53.392;-6.248;2023-03-20T07:51:08;100362.00;;;10.29;100.00
43707;BME280;61348;53.392;-6.248;2023-03-20T07:53:35;100369.59;;;10.32;100.00
43707;BME280;61348;53.392;-6.248;2023-03-20T07:56:03;100361.38;;;10.35;100.00
43707;BME280;61348;53.392;-6.248;2023-03-20T07:58:30;100370.59;;;10.39;100.00
43707;BME280;61348;53.392;-6.248;2023-03-20T08:00:57;100370.72;;;10.43;100.00
43707;BME280;61348;53.392;-6.248;2023-03-20T08:03:24;100366.06;;;10.47;100.00
43707;BME280;61348;53.392;-6.248;2023-03-20T08:05:50;100376.88;;;10.52;100.00
43707;BME280;61348;53.392;-6.248;2023-03-20T08:08:17;100375.81;;;10.57;100.00
43707;BME280;61348;53.392;-6.248;2023-03-20T08:10:44;100383.84;;;10.62;100.00
43707;BME280;61348;53.392;-6.248;2023-03-20T08:13:11;100398.63;;;10.66;100.00
43707;BME280;61348;53.392;-6.248;2023-03-20T08:15:38;100391.19;;;10.70;100.00
43707;BME280;61348;53.392;-6.248;2023-03-20T08:18:05;100390.84;;;10.71;100.00
43707;BME280;61348;53.392;-6.248;2023-03-20T08:20:31;100394.06;;;10.73;100.00
43707;BME280;61348;53.392;-6.248;2023-03-20T08:22:58;100391.41;;;10.77;100.00
43707;BME280;61348;53.392;-6.248;2023-03-20T08:25:25;100382.03;;;10.81;100.00
43707;BME280;61348;53.392;-6.248;2023-03-20T08:27:52;100377.41;;;10.85;100.00
43707;BME280;61348;53.392;-6.248;2023-03-20T08:30:18;100375.97;;;10.91;100.00
43707;BME280;61348;53.392;-6.248;2023-03-20T08:32:45;100366.59;;;10.96;100.00
43707;BME280;61348;53.392;-6.248;2023-03-20T08:35:12;100365.84;;;10.99;100.00
43707;BME280;61348;53.392;-6.248;2023-03-20T08:37:55;100379.00;;;11.02;100.00
43707;BME280;61348;53.392;-6.248;2023-03-20T08:40:22;100377.13;;;11.06;100.00
43707;BME280;61348;53.392;-6.248;2023-03-20T08:42:48;100378.03;;;11.10;100.00
43707;BME280;61348;53.392;-6.248;2023-03-20T08:45:15;100390.00;;;11.14;100.00
43707;BME280;61348;53.392;-6.248;2023-03-20T08:47:42;100380.63;;;11.19;100.00
43707;BME280;61348;53.392;-6.248;2023-03-20T08:50:09;100385.44;;;11.22;100.00
43707;BME280;61348;53.392;-6.248;2023-03-20T08:52:36;100391.06;;;11.25;100.00
43707;BME280;61348;53.392;-6.248;2023-03-20T08:55:03;100389.63;;;11.31;100.00
43707;BME280;61348;53.392;-6.248;2023-03-20T08:57:30;100384.28;;;11.38;100.00
43707;BME280;61348;53.392;-6.248;2023-03-20T08:59:57;100377.72;;;11.46;100.00
43707;BME280;61348;53.392;-6.248;2023-03-20T09:02:23;100379.88;;;11.53;100.00
43707;BME280;61348;53.392;-6.248;2023-03-20T09:04:50;100385.56;;;11.60;100.00
43707;BME280;61348;53.392;-6.248;2023-03-20T09:07:17;100401.16;;;11.65;100.00
43707;BME280;61348;53.392;-6.248;2023-03-20T09:09:44;100401.16;;;11.65;100.00
43707;BME280;61348;53.392;-6.248;2023-03-20T09:12:10;100395.94;;;11.63;100.00
43707;BME280;61348;53.392;-6.248;2023-03-20T09:14:37;100393.16;;;11.63;100.00
43707;BME280;61348;53.392;-6.248;2023-03-20T09:17:05;100397.19;;;11.66;100.00
43707;BME280;61348;53.392;-6.248;2023-03-20T09:19:32;100390.25;;;11.72;100.00
43707;BME280;61348;53.392;-6.248;2023-03-20T09:21:59;100391.91;;;11.76;100.00
43707;BME280;61348;53.392;-6.248;2023-03-20T09:24:26;100378.22;;;11.83;100.00
43707;BME280;61348;53.392;-6.248;2023-03-20T09:26:54;100377.56;;;11.90;100.00
43707;BME280;61348;53.392;-6.248;2023-03-20T09:29:21;100375.41;;;11.99;100.00
43707;BME280;61348;53.392;-6.248;2023-03-20T09:31:47;100381.22;;;12.13;100.00
43707;BME280;61348;53.392;-6.248;2023-03-20T09:34:14;100377.59;;;12.28;100.00
43707;BME280;61348;53.392;-6.248;2023-03-20T09:36:41;100391.25;;;12.37;100.00
43707;BME280;61348;53.392;-6.248;2023-03-20T09:39:08;100385.34;;;12.38;100.00
43707;BME280;61348;53.392;-6.248;2023-03-20T09:41:35;100386.19;;;12.42;100.00
43707;BME280;61348;53.392;-6.248;2023-03-20T09:52:26;100400.72;;;12.74;100.00
43707;BME280;61348;53.392;-6.248;2023-03-20T09:54:59;100399.56;;;12.75;100.00
43707;BME280;61348;53.392;-6.248;2023-03-20T09:57:34;100394.00;;;12.75;100.00
43707;BME280;61348;53.392;-6.248;2023-03-20T10:00:13;100386.41;;;12.72;100.00
43707;BME280;61348;53.392;-6.248;2023-03-20T10:07:51;100390.28;;;12.67;100.00
43707;BME280;61348;53.392;-6.248;2023-03-20T10:10:26;100392.03;;;12.75;100.00
43707;BME280;61348;53.392;-6.248;2023-03-20T10:15:49;100386.69;;;13.09;100.00
43707;BME280;61348;53.392;-6.248;2023-03-20T10:18:26;100388.13;;;13.22;100.00
43707;BME280;61348;53.392;-6.248;2023-03-20T10:23:58;100390.41;;;13.16;100.00
43707;BME280;61348;53.392;-6.248;2023-03-20T10:26:27;100385.53;;;13.10;100.00
43707;BME280;61348;53.392;-6.248;2023-03-20T10:41:54;100374.53;;;13.66;100.00
43707;BME280;61348;53.392;-6.248;2023-03-20T10:44:38;100367.50;;;13.75;100.00
43707;BME280;61348;53.392;-6.248;2023-03-20T10:47:08;100365.34;;;13.91;99.14
43707;BME280;61348;53.392;-6.248;2023-03-20T10:49:42;100367.06;;;13.99;98.09
43707;BME280;61348;53.392;-6.248;2023-03-20T10:52:25;100359.44;;;13.96;97.45
43707;BME280;61348;53.392;-6.248;2023-03-20T10:54:57;100374.78;;;13.83;97.68
43707;BME280;61348;53.392;-6.248;2023-03-20T10:57:28;100366.34;;;13.76;97.19
43707;BME280;61348;53.392;-6.248;2023-03-20T10:59:57;100379.38;;;13.72;97.37
43707;BME280;61348;53.392;-6.248;2023-03-20T11:02:28;100369.88;;;13.73;97.00
43707;BME280;61348;53.392;-6.248;2023-03-20T11:04:58;100367.19;;;13.80;96.47
43707;BME280;61348;53.392;-6.248;2023-03-20T11:12:44;100363.44;;;13.69;95.32
43707;BME280;61348;53.392;-6.248;2023-03-20T11:17:40;100356.00;;;13.51;94.77
43707;BME280;61348;53.392;-6.248;2023-03-20T11:20:12;100359.91;;;13.46;94.80
43707;BME280;61348;53.392;-6.248;2023-03-20T11:22:39;100346.88;;;13.50;94.99
43707;BME280;61348;53.392;-6.248;2023-03-20T11:25:22;100349.00;;;13.60;95.20
43707;BME280;61348;53.392;-6.248;2023-03-20T11:27:49;100350.41;;;13.77;95.02
43707;BME280;61348;53.392;-6.248;2023-03-20T11:30:16;100344.31;;;13.94;94.25
43707;BME280;61348;53.392;-6.248;2023-03-20T11:32:48;100348.06;;;14.09;93.99
43707;BME280;61348;53.392;-6.248;2023-03-20T11:37:50;100345.88;;;14.21;92.90
43707;BME280;61348;53.392;-6.248;2023-03-20T11:40:21;100341.84;;;14.19;92.63
43707;BME280;61348;53.392;-6.248;2023-03-20T11:42:53;100337.75;;;14.09;91.98
43707;BME280;61348;53.392;-6.248;2023-03-20T11:45:21;100344.03;;;14.02;91.97
43707;BME280;61348;53.392;-6.248;2023-03-20T11:47:53;100334.47;;;14.03;91.87
43707;BME280;61348;53.392;-6.248;2023-03-20T11:53:01;100324.75;;;14.20;91.37
43707;BME280;61348;53.392;-6.248;2023-03-20T11:55:33;100326.06;;;14.30;91.02
43707;BME280;61348;53.392;-6.248;2023-03-20T11:58:03;100329.72;;;14.34;90.50
43707;BME280;61348;53.392;-6.248;2023-03-20T12:00:39;100326.94;;;14.34;90.13
43707;BME280;61348;53.392;-6.248;2023-03-20T12:06:14;100321.84;;;14.43;89.81
43707;BME280;61348;53.392;-6.248;2023-03-20T12:08:45;100316.38;;;14.50;89.26
43707;BME280;61348;53.392;-6.248;2023-03-20T12:14:04;100301.72;;;14.56;88.39
43707;BME280;61348;53.392;-6.248;2023-03-20T12:16:34;100284.22;;;14.56;88.18
43707;BME280;61348;53.392;-6.248;2023-03-20T12:19:12;100296.53;;;14.55;87.91
43707;BME280;61348;53.392;-6.248;2023-03-20T12:22:00;100304.09;;;14.54;87.69
43707;BME280;61348;53.392;-6.248;2023-03-20T12:24:44;100288.19;;;14.55;87.57
43707;BME280;61348;53.392;-6.248;2023-03-20T12:27:28;100286.22;;;14.59;87.60
43707;BME280;61348;53.392;-6.248;2023-03-20T12:30:05;100288.22;;;14.62;87.20
43707;BME280;61348;53.392;-6.248;2023-03-20T12:32:51;100296.25;;;14.67;87.11
43707;BME280;61348;53.392;-6.248;2023-03-20T12:35:27;100295.88;;;14.72;86.70
43707;BME280;61348;53.392;-6.248;2023-03-20T12:37:54;100297.91;;;14.75;86.35
43707;BME280;61348;53.392;-6.248;2023-03-20T12:40:31;100293.19;;;14.83;86.28
43707;BME280;61348;53.392;-6.248;2023-03-20T12:43:15;100286.84;;;14.86;85.95
43707;BME280;61348;53.392;-6.248;2023-03-20T12:46:24;100279.31;;;14.86;85.85
43707;BME280;61348;53.392;-6.248;2023-03-20T12:48:55;100273.72;;;14.86;85.61
43707;BME280;61348;53.392;-6.248;2023-03-20T13:01:25;100263.78;;;15.40;84.54
43707;BME280;61348;53.392;-6.248;2023-03-20T13:04:15;100257.94;;;15.62;84.06
43707;BME280;61348;53.392;-6.248;2023-03-20T13:07:04;100263.59;;;15.76;83.79
43707;BME280;61348;53.392;-6.248;2023-03-20T13:15:15;100258.72;;;15.56;82.89
43707;BME280;61348;53.392;-6.248;2023-03-20T13:18:07;100255.91;;;15.49;82.34
43707;BME280;61348;53.392;-6.248;2023-03-20T13:20:51;100245.84;;;15.44;81.42
43707;BME280;61348;53.392;-6.248;2023-03-20T13:31:56;100237.19;;;15.60;80.57
43707;BME280;61348;53.392;-6.248;2023-03-20T13:40:32;100233.44;;;16.17;79.42
43707;BME280;61348;53.392;-6.248;2023-03-20T13:45:46;100215.81;;;15.92;78.59
43707;BME280;61348;53.392;-6.248;2023-03-20T13:48:33;100217.34;;;15.79;78.37
43707;BME280;61348;53.392;-6.248;2023-03-20T13:53:52;100206.94;;;15.62;77.96
43707;BME280;61348;53.392;-6.248;2023-03-20T13:58:56;100199.69;;;15.50;77.50
43707;BME280;61348;53.392;-6.248;2023-03-20T14:04:02;100186.47;;;15.40;77.53
43707;BME280;61348;53.392;-6.248;2023-03-20T14:08:57;100180.50;;;15.42;77.10
43707;BME280;61348;53.392;-6.248;2023-03-20T14:11:27;100179.69;;;15.38;76.97
43707;BME280;61348;53.392;-6.248;2023-03-20T14:14:24;100176.47;;;15.36;76.88
43707;BME280;61348;53.392;-6.248;2023-03-20T14:17:00;100170.88;;;15.36;76.74
43707;BME280;61348;53.392;-6.248;2023-03-20T14:19:28;100159.72;;;15.36;76.55
43707;BME280;61348;53.392;-6.248;2023-03-20T14:21:55;100162.94;;;15.38;76.49
43707;BME280;61348;53.392;-6.248;2023-03-20T14:24:23;100162.56;;;15.43;76.26
43707;BME280;61348;53.392;-6.248;2023-03-20T14:26:58;100164.63;;;15.46;76.26
43707;BME280;61348;53.392;-6.248;2023-03-20T14:37:29;100155.47;;;15.56;75.83
43707;BME280;61348;53.392;-6.248;2023-03-20T14:42:54;100143.06;;;15.46;75.73
43707;BME280;61348;53.392;-6.248;2023-03-20T14:45:44;100140.22;;;15.39;75.61
43707;BME280;61348;53.392;-6.248;2023-03-20T14:51:22;100134.97;;;15.23;75.66
43707;BME280;61348;53.392;-6.248;2023-03-20T14:53:57;100130.56;;;15.15;75.57
43707;BME280;61348;53.392;-6.248;2023-03-20T14:56:43;100135.28;;;15.04;75.37
43707;BME280;61348;53.392;-6.248;2023-03-20T14:59:10;100135.25;;;14.97;75.32
43707;BME280;61348;53.392;-6.248;2023-03-20T15:06:57;100133.59;;;14.89;75.56
43707;BME280;61348;53.392;-6.248;2023-03-20T15:09:29;100139.19;;;14.89;75.66
43707;BME280;61348;53.392;-6.248;2023-03-20T15:11:58;100134.78;;;14.88;75.67